createdAt,value
2023-05-01T05:01:12.670Z,94771.00
2023-05-01T05:02:12.851Z,94775.00
2023-05-01T05:03:12.811Z,94777.00
2023-05-01T05:04:12.790Z,94777.00
2023-05-01T05:05:12.759Z,94773.00
2023-05-01T05:06:12.838Z,94771.00
2023-05-01T05:07:12.829Z,94771.00
2023-05-01T05:08:12.861Z,94769.00
2023-05-01T05:09:12.909Z,94771.00
2023-05-01T05:10:12.893Z,94771.00
2023-05-01T05:11:12.908Z,94775.00
2023-05-01T05:12:12.876Z,94779.00
2023-05-01T05:13:12.960Z,94775.00
2023-05-01T05:14:12.968Z,94777.00
2023-05-01T05:15:13.030Z,94777.00
2023-05-01T05:16:13.199Z,94775.00
2023-05-01T05:17:13.174Z,94775.00
2023-05-01T05:18:13.205Z,94775.00
2023-05-01T05:19:13.277Z,94773.00
2023-05-01T05:20:13.348Z,94773.00
2023-05-01T05:21:13.415Z,94771.00
2023-05-01T05:22:13.449Z,94773.00
2023-05-01T05:23:13.484Z,94771.00
2023-05-01T05:24:13.574Z,94769.00
2023-05-01T05:25:13.612Z,94767.00
2023-05-01T05:26:13.663Z,94771.00
2023-05-01T05:27:13.713Z,94769.00
2023-05-01T05:28:13.740Z,94771.00
2023-05-01T05:29:13.824Z,94767.00
2023-05-01T05:30:13.901Z,94769.00
2023-05-01T05:31:13.898Z,94769.00
2023-05-01T05:32:14.019Z,94769.00
2023-05-01T05:33:14.113Z,94769.00
2023-05-01T05:34:14.091Z,94769.00
2023-05-01T05:35:14.145Z,94769.00
2023-05-01T05:36:14.170Z,94767.00
2023-05-01T05:37:14.261Z,94771.00
2023-05-01T05:38:14.303Z,94771.00
2023-05-01T05:39:14.312Z,94771.00
2023-05-01T05:40:14.382Z,94773.00
2023-05-01T05:41:14.506Z,94773.00
2023-05-01T05:42:14.459Z,94773.00
2023-05-01T05:43:14.504Z,94777.00
2023-05-01T05:44:14.574Z,94777.00
2023-05-01T05:45:14.599Z,94777.00
2023-05-01T05:46:14.710Z,94777.00
2023-05-01T05:47:14.735Z,94775.00
2023-05-01T05:48:14.893Z,94779.00
2023-05-01T05:49:14.768Z,94777.00
2023-05-01T05:50:14.831Z,94775.00
2023-05-01T05:51:14.864Z,94775.00
2023-05-01T05:52:14.945Z,94773.00
2023-05-01T05:53:14.988Z,94777.00
2023-05-01T05:54:15.020Z,94775.00
2023-05-01T05:55:15.039Z,94775.00
2023-05-01T05:56:15.093Z,94775.00
2023-05-01T05:57:15.151Z,94775.00
2023-05-01T05:58:15.171Z,94773.00
2023-05-01T05:59:16.678Z,94777.00
2023-05-01T06:00:15.282Z,94775.00
2023-05-01T06:01:15.411Z,94775.00
2023-05-01T06:02:15.411Z,94775.00
2023-05-01T06:03:15.444Z,94775.00
2023-05-01T06:04:15.469Z,94773.00
2023-05-01T06:05:15.611Z,94773.00
2023-05-01T06:06:15.576Z,94777.00
2023-05-01T06:07:15.626Z,94777.00
2023-05-01T06:08:15.645Z,94777.00
2023-05-01T06:09:15.717Z,94771.00
2023-05-01T06:10:15.707Z,94769.00
2023-05-01T06:11:15.760Z,94767.00
2023-05-01T06:12:15.803Z,94771.00
2023-05-01T06:13:15.819Z,94769.00
2023-05-01T06:14:15.902Z,94765.00
2023-05-01T06:15:15.926Z,94767.00
2023-05-01T06:16:15.991Z,94767.00
2023-05-01T06:17:16.011Z,94769.00
2023-05-01T06:18:16.151Z,94767.00
2023-05-01T06:19:16.158Z,94767.00
2023-05-01T06:20:16.125Z,94767.00
2023-05-01T06:21:16.242Z,94767.00
2023-05-01T06:22:16.223Z,94767.00
2023-05-01T06:23:16.258Z,94767.00
2023-05-01T06:24:16.326Z,94767.00
2023-05-01T06:25:16.351Z,94765.00
2023-05-01T06:26:16.425Z,94764.00
2023-05-01T06:27:16.430Z,94765.00
2023-05-01T06:28:16.479Z,94765.00
2023-05-01T06:29:16.537Z,94764.00
2023-05-01T06:30:16.541Z,94765.00
2023-05-01T06:31:16.638Z,94765.00
2023-05-01T06:32:16.645Z,94765.00
2023-05-01T06:33:16.741Z,94765.00
2023-05-01T06:34:16.684Z,94765.00
2023-05-01T06:35:16.786Z,94765.00
2023-05-01T06:36:16.824Z,94760.00
2023-05-01T06:37:16.848Z,94758.00
2023-05-01T06:38:16.871Z,94756.00
2023-05-01T06:39:16.918Z,94756.00
2023-05-01T06:40:16.952Z,94754.00
2023-05-01T06:41:17.921Z,94758.00
2023-05-01T06:42:17.057Z,94758.00
2023-05-01T06:43:17.063Z,94760.00
2023-05-01T06:44:17.120Z,94762.00
2023-05-01T06:45:17.152Z,94758.00
2023-05-01T06:46:17.250Z,94762.00
2023-05-01T06:47:17.215Z,94760.00
2023-05-01T06:48:17.304Z,94760.00
2023-05-01T06:49:17.326Z,94762.00
2023-05-01T06:50:17.397Z,94762.00
2023-05-01T06:51:17.389Z,94764.00
2023-05-01T06:52:17.423Z,94764.00
2023-05-01T06:53:17.470Z,94764.00
2023-05-01T06:54:17.526Z,94764.00
2023-05-01T06:55:17.584Z,94762.00
2023-05-01T06:56:17.563Z,94764.00
2023-05-01T06:57:17.635Z,94764.00
2023-05-01T06:58:24.042Z,94765.00
2023-05-01T06:59:18.643Z,94765.00
2023-05-01T07:00:17.641Z,94762.00
2023-05-01T07:01:17.739Z,94765.00
2023-05-01T07:02:17.703Z,94762.00
2023-05-01T07:03:17.741Z,94762.00
2023-05-01T07:04:17.598Z,94760.00
2023-05-01T07:05:17.613Z,94762.00
2023-05-01T07:06:17.615Z,94760.00
2023-05-01T07:07:17.588Z,94758.00
2023-05-01T07:08:17.571Z,94758.00
2023-05-01T07:09:17.603Z,94756.00
2023-05-01T07:10:17.562Z,94758.00
2023-05-01T07:11:17.575Z,94758.00
2023-05-01T07:12:17.618Z,94760.00
2023-05-01T07:13:17.653Z,94760.00
2023-05-01T07:14:17.687Z,94760.00
2023-05-01T07:15:17.765Z,94760.00
2023-05-01T07:16:17.868Z,94762.00
2023-05-01T07:17:17.820Z,94762.00
2023-05-01T07:18:17.873Z,94762.00
2023-05-01T07:19:17.900Z,94762.00
2023-05-01T07:20:17.979Z,94762.00
2023-05-01T07:21:17.989Z,94762.00
2023-05-01T07:22:18.049Z,94764.00
2023-05-01T07:23:18.064Z,94762.00
2023-05-01T07:24:18.117Z,94762.00
2023-05-01T07:25:18.150Z,94765.00
2023-05-01T07:26:18.185Z,94764.00
2023-05-01T07:27:18.223Z,94764.00
2023-05-01T07:28:18.280Z,94764.00
2023-05-01T07:29:18.314Z,94760.00
2023-05-01T07:30:18.370Z,94758.00
2023-05-01T07:31:18.457Z,94758.00
2023-05-01T07:32:18.486Z,94758.00
2023-05-01T07:33:18.506Z,94756.00
2023-05-01T07:34:18.512Z,94756.00
2023-05-01T07:35:19.437Z,94756.00
2023-05-01T07:36:18.637Z,94752.00
2023-05-01T07:37:18.643Z,94754.00
2023-05-01T07:38:18.646Z,94754.00
2023-05-01T07:39:18.731Z,94754.00
2023-05-01T07:40:18.759Z,94754.00
2023-05-01T07:41:18.792Z,94752.00
2023-05-01T07:42:18.874Z,94752.00
2023-05-01T07:43:18.903Z,94752.00
2023-05-01T07:44:18.924Z,94750.00
2023-05-01T07:45:18.954Z,94750.00
2023-05-01T07:46:19.081Z,94748.00
2023-05-01T07:47:19.002Z,94748.00
2023-05-01T07:48:19.069Z,94746.00
2023-05-01T07:49:19.132Z,94746.00
2023-05-01T07:50:19.127Z,94748.00
2023-05-01T07:51:19.251Z,94748.00
2023-05-01T07:52:19.208Z,94750.00
2023-05-01T07:53:19.258Z,94750.00
2023-05-01T07:54:19.304Z,94750.00
2023-05-01T07:55:19.341Z,94750.00
2023-05-01T07:56:19.369Z,94752.00
2023-05-01T07:57:19.435Z,94752.00
2023-05-01T07:58:19.467Z,94756.00
2023-05-01T07:59:19.539Z,94750.00
2023-05-01T08:00:19.545Z,94756.00
2023-05-01T08:01:19.580Z,94756.00
2023-05-01T08:02:19.695Z,94752.00
2023-05-01T08:03:20.036Z,94756.00
2023-05-01T08:04:19.726Z,94750.00
2023-05-01T08:05:19.724Z,94750.00
2023-05-01T08:06:19.822Z,94750.00
2023-05-01T08:07:19.757Z,94748.00
2023-05-01T08:08:19.805Z,94748.00
2023-05-01T08:09:19.784Z,94748.00
2023-05-01T08:10:19.850Z,94748.00
2023-05-01T08:11:19.883Z,94748.00
2023-05-01T08:12:19.881Z,94744.00
2023-05-01T08:13:19.880Z,94744.00
2023-05-01T08:14:19.881Z,94746.00
2023-05-01T08:15:19.944Z,94746.00
2023-05-01T08:16:21.852Z,94744.00
2023-05-01T08:17:19.957Z,94746.00
2023-05-01T08:18:19.928Z,94746.00
2023-05-01T08:19:19.922Z,94748.00
2023-05-01T08:20:19.923Z,94750.00
2023-05-01T08:21:19.927Z,94746.00
2023-05-01T08:22:19.950Z,94748.00
2023-05-01T08:23:19.924Z,94748.00
2023-05-01T08:24:19.977Z,94746.00
2023-05-01T08:25:19.958Z,94746.00
2023-05-01T08:26:21.249Z,94746.00
2023-05-01T08:27:19.949Z,94742.00
2023-05-01T08:28:20.010Z,94742.00
2023-05-01T08:29:19.957Z,94744.00
2023-05-01T08:30:20.028Z,94744.00
2023-05-01T08:31:20.033Z,94744.00
2023-05-01T08:32:19.982Z,94742.00
2023-05-01T08:33:19.991Z,94746.00
2023-05-01T08:34:19.979Z,94748.00
2023-05-01T08:35:20.103Z,94746.00
2023-05-01T08:36:21.249Z,94748.00
2023-05-01T08:37:19.981Z,94746.00
2023-05-01T08:38:19.977Z,94746.00
2023-05-01T08:39:19.996Z,94742.00
2023-05-01T08:40:20.001Z,94740.00
2023-05-01T08:41:20.003Z,94738.00
2023-05-01T08:42:19.989Z,94738.00
2023-05-01T08:43:20.030Z,94738.00
2023-05-01T08:44:20.003Z,94736.00
2023-05-01T08:45:20.027Z,94738.00
2023-05-01T08:46:20.057Z,94736.00
2023-05-01T08:47:20.028Z,94734.00
2023-05-01T08:48:20.024Z,94734.00
2023-05-01T08:49:20.020Z,94734.00
2023-05-01T08:50:20.070Z,94732.00
2023-05-01T08:51:21.160Z,94734.00
2023-05-01T08:52:19.996Z,94732.00
2023-05-01T08:53:20.036Z,94730.00
2023-05-01T08:54:20.051Z,94730.00
2023-05-01T08:55:20.055Z,94728.00
2023-05-01T08:56:20.044Z,94728.00
2023-05-01T08:57:20.049Z,94728.00
2023-05-01T08:58:20.052Z,94728.00
2023-05-01T08:59:20.062Z,94728.00
2023-05-01T09:00:20.215Z,94730.00
2023-05-01T09:01:20.114Z,94730.00
2023-05-01T09:02:20.078Z,94730.00
2023-05-01T09:03:20.301Z,94730.00
2023-05-01T09:04:20.174Z,94734.00
2023-05-01T09:05:20.122Z,94732.00
2023-05-01T09:06:20.149Z,94730.00
2023-05-01T09:07:20.096Z,94728.00
2023-05-01T09:08:20.093Z,94726.00
2023-05-01T09:09:20.140Z,94724.00
2023-05-01T09:10:20.161Z,94720.00
2023-05-01T09:11:20.143Z,94718.00
2023-05-01T09:12:20.142Z,94722.00
2023-05-01T09:13:20.149Z,94720.00
2023-05-01T09:14:20.133Z,94720.00
2023-05-01T09:15:21.005Z,94720.00
2023-05-01T09:16:20.208Z,94726.00
2023-05-01T09:17:20.188Z,94724.00
2023-05-01T09:18:20.237Z,94724.00
2023-05-01T09:19:20.145Z,94720.00
2023-05-01T09:20:20.192Z,94722.00
2023-05-01T09:21:20.161Z,94720.00
2023-05-01T09:22:20.198Z,94722.00
2023-05-01T09:23:20.228Z,94722.00
2023-05-01T09:24:20.233Z,94722.00
2023-05-01T09:25:20.205Z,94720.00
2023-05-01T09:26:20.209Z,94720.00
2023-05-01T09:27:20.232Z,94717.00
2023-05-01T09:28:20.244Z,94715.00
2023-05-01T09:29:20.192Z,94713.00
2023-05-01T09:30:20.249Z,94713.00
2023-05-01T09:31:20.300Z,94711.00
2023-05-01T09:32:20.435Z,94709.00
2023-05-01T09:33:20.278Z,94709.00
2023-05-01T09:34:20.247Z,94707.00
2023-05-01T09:35:20.228Z,94703.00
2023-05-01T09:36:20.276Z,94705.00
2023-05-01T09:37:20.285Z,94703.00
2023-05-01T09:38:20.335Z,94699.00
2023-05-01T09:39:20.324Z,94697.00
2023-05-01T09:40:20.345Z,94695.00
2023-05-01T09:41:20.397Z,94695.00
2023-05-01T09:42:20.384Z,94693.00
2023-05-01T09:43:20.404Z,94693.00
2023-05-01T09:44:20.411Z,94691.00
2023-05-01T09:45:20.470Z,94691.00
2023-05-01T09:46:20.525Z,94691.00
2023-05-01T09:47:20.576Z,94691.00
2023-05-01T09:48:20.539Z,94691.00
2023-05-01T09:49:20.570Z,94689.00
2023-05-01T09:50:20.578Z,94689.00
2023-05-01T09:51:20.641Z,94687.00
2023-05-01T09:52:20.677Z,94685.00
2023-05-01T09:53:20.715Z,94685.00
2023-05-01T09:54:20.760Z,94687.00
2023-05-01T09:55:20.810Z,94681.00
2023-05-01T09:56:20.869Z,94683.00
2023-05-01T09:57:20.923Z,94683.00
2023-05-01T09:58:20.972Z,94681.00
2023-05-01T09:59:21.054Z,94681.00
2023-05-01T10:00:21.048Z,94681.00
2023-05-01T10:01:21.111Z,94679.00
2023-05-01T10:02:21.216Z,94679.00
2023-05-01T10:03:21.332Z,94675.00
2023-05-01T10:04:21.261Z,94675.00
2023-05-01T10:05:21.323Z,94673.00
2023-05-01T10:06:21.397Z,94671.00
2023-05-01T10:07:21.432Z,94671.00
2023-05-01T10:08:21.471Z,94669.00
2023-05-01T10:09:21.545Z,94667.00
2023-05-01T10:10:21.594Z,94669.00
2023-05-01T10:11:21.668Z,94665.00
2023-05-01T10:12:21.730Z,94665.00
2023-05-01T10:13:21.836Z,94667.00
2023-05-01T10:14:21.891Z,94665.00
2023-05-01T10:15:26.153Z,94663.00
2023-05-01T10:16:21.965Z,94662.00
2023-05-01T10:17:21.917Z,94663.00
2023-05-01T10:18:21.976Z,94662.00
2023-05-01T10:19:21.841Z,94662.00
2023-05-01T10:20:21.973Z,94660.00
2023-05-01T10:21:21.880Z,94658.00
2023-05-01T10:22:21.896Z,94660.00
2023-05-01T10:23:21.810Z,94660.00
2023-05-01T10:24:21.840Z,94656.00
2023-05-01T10:25:21.878Z,94656.00
2023-05-01T10:26:21.932Z,94658.00
2023-05-01T10:27:22.065Z,94654.00
2023-05-01T10:28:22.089Z,94658.00
2023-05-01T10:29:22.157Z,94658.00
2023-05-01T10:30:22.192Z,94660.00
2023-05-01T10:31:22.321Z,94660.00
2023-05-01T10:32:22.341Z,94660.00
2023-05-01T10:33:22.448Z,94656.00
2023-05-01T10:34:22.441Z,94652.00
2023-05-01T10:35:22.592Z,94652.00
2023-05-01T10:36:22.561Z,94650.00
2023-05-01T10:37:22.610Z,94652.00
2023-05-01T10:38:22.688Z,94650.00
2023-05-01T10:39:22.728Z,94648.00
2023-05-01T10:40:22.781Z,94646.00
2023-05-01T10:41:22.864Z,94644.00
2023-05-01T10:42:22.918Z,94642.00
2023-05-01T10:43:22.971Z,94640.00
2023-05-01T10:44:23.046Z,94640.00
2023-05-01T10:45:23.146Z,94640.00
2023-05-01T10:46:23.180Z,94640.00
2023-05-01T10:47:23.250Z,94636.00
2023-05-01T10:48:23.292Z,94638.00
2023-05-01T10:49:23.331Z,94634.00
2023-05-01T10:50:23.377Z,94634.00
2023-05-01T10:51:26.595Z,94632.00
2023-05-01T10:52:23.425Z,94624.00
2023-05-01T10:53:23.470Z,94620.00
2023-05-01T10:54:23.446Z,94622.00
2023-05-01T10:55:23.460Z,94620.00
2023-05-01T10:56:23.391Z,94618.00
2023-05-01T10:57:23.396Z,94618.00
2023-05-01T10:58:23.405Z,94617.00
2023-05-01T10:59:23.422Z,94617.00
2023-05-01T11:00:23.381Z,94613.00
2023-05-01T11:01:23.425Z,94611.00
2023-05-01T11:02:23.582Z,94607.00
2023-05-01T11:03:23.360Z,94607.00
2023-05-01T11:04:23.341Z,94605.00
2023-05-01T11:05:32.316Z,94605.00
2023-05-01T11:06:24.455Z,94603.00
2023-05-01T11:07:23.397Z,94601.00
2023-05-01T11:08:23.320Z,94601.00
2023-05-01T11:09:23.348Z,94601.00
2023-05-01T11:10:23.318Z,94599.00
2023-05-01T11:11:23.305Z,94601.00
2023-05-01T11:12:23.314Z,94597.00
2023-05-01T11:13:23.283Z,94597.00
2023-05-01T11:14:23.258Z,94599.00
2023-05-01T11:15:23.312Z,94595.00
2023-05-01T11:16:23.367Z,94593.00
2023-05-01T11:17:23.436Z,94591.00
2023-05-01T11:18:23.427Z,94589.00
2023-05-01T11:19:23.497Z,94595.00
2023-05-01T11:20:23.523Z,94591.00
2023-05-01T11:21:23.556Z,94593.00
2023-05-01T11:22:23.612Z,94595.00
2023-05-01T11:23:23.692Z,94593.00
2023-05-01T11:24:23.719Z,94595.00
2023-05-01T11:25:23.762Z,94589.00
2023-05-01T11:26:23.827Z,94589.00
2023-05-01T11:27:23.845Z,94589.00
2023-05-01T11:28:23.877Z,94587.00
2023-05-01T11:29:23.935Z,94583.00
2023-05-01T11:30:24.002Z,94581.00
2023-05-01T11:31:24.106Z,94581.00
2023-05-01T11:32:24.132Z,94581.00
2023-05-01T11:33:24.154Z,94581.00
2023-05-01T11:34:24.176Z,94575.00
2023-05-01T11:35:24.269Z,94573.00
2023-05-01T11:36:24.269Z,94573.00
2023-05-01T11:37:24.320Z,94573.00
2023-05-01T11:38:24.377Z,94575.00
2023-05-01T11:39:24.434Z,94571.00
2023-05-01T11:40:24.469Z,94568.00
2023-05-01T11:41:24.580Z,94570.00
2023-05-01T11:42:24.623Z,94570.00
2023-05-01T11:43:24.604Z,94570.00
2023-05-01T11:44:24.657Z,94568.00
2023-05-01T11:45:24.690Z,94568.00
2023-05-01T11:46:24.834Z,94568.00
2023-05-01T11:47:24.835Z,94566.00
2023-05-01T11:48:24.825Z,94562.00
2023-05-01T11:49:24.853Z,94564.00
2023-05-01T11:50:24.910Z,94558.00
2023-05-01T11:51:24.939Z,94558.00
2023-05-01T11:52:24.985Z,94564.00
2023-05-01T11:53:25.011Z,94562.00
2023-05-01T11:54:25.075Z,94560.00
2023-05-01T11:55:25.107Z,94560.00
2023-05-01T11:57:25.372Z,94560.00
2023-05-01T11:58:25.269Z,94558.00
2023-05-01T11:59:25.284Z,94558.00
2023-05-01T12:00:25.307Z,94554.00
2023-05-01T12:01:25.333Z,94554.00
2023-05-01T12:02:25.539Z,94552.00
2023-05-01T12:03:25.752Z,94552.00
2023-05-01T12:04:25.801Z,94550.00
2023-05-01T12:05:25.498Z,94550.00
2023-05-01T12:06:25.590Z,94548.00
2023-05-01T12:07:25.601Z,94548.00
2023-05-01T12:08:25.620Z,94542.00
2023-05-01T12:09:25.687Z,94542.00
2023-05-01T12:10:25.666Z,94540.00
2023-05-01T12:11:25.757Z,94540.00
2023-05-01T12:12:25.777Z,94540.00
2023-05-01T12:13:25.854Z,94542.00
2023-05-01T12:14:25.894Z,94540.00
2023-05-01T12:15:25.990Z,94542.00
2023-05-01T12:16:25.936Z,94544.00
2023-05-01T12:17:26.194Z,94534.00
2023-05-01T12:18:26.088Z,94538.00
2023-05-01T12:19:26.075Z,94532.00
2023-05-01T12:20:26.125Z,94530.00
2023-05-01T12:21:26.148Z,94530.00
2023-05-01T12:22:26.215Z,94526.00
2023-05-01T12:23:26.268Z,94526.00
2023-05-01T12:24:26.291Z,94528.00
2023-05-01T12:25:26.315Z,94526.00
2023-05-01T12:26:26.410Z,94526.00
2023-05-01T12:27:26.407Z,94524.00
2023-05-01T12:28:26.449Z,94528.00
2023-05-01T12:29:26.511Z,94526.00
2023-05-01T12:30:26.576Z,94522.00
2023-05-01T12:31:26.664Z,94524.00
2023-05-01T12:32:26.653Z,94524.00
2023-05-01T12:33:26.701Z,94524.00
2023-05-01T12:34:26.702Z,94524.00
2023-05-01T12:35:26.846Z,94524.00
2023-05-01T12:36:26.827Z,94520.00
2023-05-01T12:37:26.897Z,94520.00
2023-05-01T12:38:26.910Z,94522.00
2023-05-01T12:39:26.964Z,94518.00
2023-05-01T12:40:27.006Z,94518.00
2023-05-01T12:41:27.057Z,94513.00
2023-05-01T12:42:27.123Z,94513.00
2023-05-01T12:43:27.184Z,94507.00
2023-05-01T12:44:27.241Z,94507.00
2023-05-01T12:45:27.264Z,94513.00
2023-05-01T12:46:27.379Z,94515.00
2023-05-01T12:47:27.393Z,94513.00
2023-05-01T12:48:27.423Z,94513.00
2023-05-01T12:49:27.497Z,94513.00
2023-05-01T12:50:27.517Z,94515.00
2023-05-01T12:51:27.574Z,94515.00
2023-05-01T12:52:27.628Z,94513.00
2023-05-01T12:53:27.681Z,94505.00
2023-05-01T12:54:27.755Z,94507.00
2023-05-01T12:55:27.826Z,94507.00
2023-05-01T12:56:27.877Z,94511.00
2023-05-01T12:57:27.896Z,94513.00
2023-05-01T12:58:29.076Z,94516.00
2023-05-01T12:59:27.996Z,94515.00
2023-05-01T13:00:28.052Z,94513.00
2023-05-01T13:01:28.212Z,94518.00
2023-05-01T13:02:28.213Z,94509.00
2023-05-01T13:03:28.281Z,94509.00
2023-05-01T13:04:28.403Z,94503.00
2023-05-01T13:05:28.306Z,94499.00
2023-05-01T13:06:28.414Z,94499.00
2023-05-01T13:07:28.436Z,94501.00
2023-05-01T13:08:28.443Z,94495.00
2023-05-01T13:09:28.518Z,94497.00
2023-05-01T13:10:28.551Z,94495.00
2023-05-01T13:11:28.622Z,94499.00
2023-05-01T13:12:28.724Z,94497.00
2023-05-01T13:13:28.693Z,94499.00
2023-05-01T13:14:28.767Z,94495.00
2023-05-01T13:15:28.895Z,94495.00
2023-05-01T13:16:28.871Z,94499.00
2023-05-01T13:17:28.940Z,94493.00
2023-05-01T13:18:28.902Z,94493.00
2023-05-01T13:19:29.133Z,94489.00
2023-05-01T13:20:28.983Z,94491.00
2023-05-01T13:21:29.053Z,94491.00
2023-05-01T13:22:29.089Z,94489.00
2023-05-01T13:23:29.118Z,94485.00
2023-05-01T13:24:29.159Z,94483.00
2023-05-01T13:25:29.214Z,94483.00
2023-05-01T13:26:29.249Z,94481.00
2023-05-01T13:27:29.297Z,94479.00
2023-05-01T13:28:29.334Z,94477.00
2023-05-01T13:29:29.352Z,94479.00
2023-05-01T13:30:29.430Z,94473.00
2023-05-01T13:31:29.464Z,94475.00
2023-05-01T13:32:29.463Z,94473.00
2023-05-01T13:33:29.540Z,94473.00
2023-05-01T13:34:29.555Z,94475.00
2023-05-01T13:35:29.661Z,94475.00
2023-05-01T13:36:29.627Z,94475.00
2023-05-01T13:37:29.681Z,94475.00
2023-05-01T13:38:29.636Z,94473.00
2023-05-01T13:39:29.699Z,94475.00
2023-05-01T13:40:29.713Z,94473.00
2023-05-01T13:41:29.724Z,94471.00
2023-05-01T13:42:29.758Z,94471.00
2023-05-01T13:43:29.783Z,94473.00
2023-05-01T13:44:29.799Z,94469.00
2023-05-01T13:45:29.862Z,94468.00
2023-05-01T13:46:30.020Z,94466.00
2023-05-01T13:47:29.930Z,94466.00
2023-05-01T13:48:29.906Z,94469.00
2023-05-01T13:49:29.990Z,94469.00
2023-05-01T13:50:29.925Z,94468.00
2023-05-01T13:51:29.984Z,94468.00
2023-05-01T13:52:29.979Z,94469.00
2023-05-01T13:53:30.018Z,94466.00
2023-05-01T13:54:30.050Z,94466.00
2023-05-01T13:55:30.090Z,94464.00
2023-05-01T13:56:30.086Z,94460.00
2023-05-01T13:57:30.095Z,94468.00
2023-05-01T13:58:30.130Z,94469.00
2023-05-01T13:59:30.129Z,94468.00
2023-05-01T14:00:30.158Z,94475.00
2023-05-01T14:01:30.239Z,94483.00
2023-05-01T14:02:30.377Z,94483.00
2023-05-01T14:03:30.313Z,94479.00
2023-05-01T14:04:30.248Z,94479.00
2023-05-01T14:05:30.281Z,94477.00
2023-05-01T14:06:30.399Z,94477.00
2023-05-01T14:07:30.290Z,94475.00
2023-05-01T14:08:30.299Z,94477.00
2023-05-01T14:09:30.322Z,94473.00
2023-05-01T14:10:30.337Z,94479.00
2023-05-01T14:11:30.342Z,94477.00
2023-05-01T14:12:30.396Z,94479.00
2023-05-01T14:13:30.398Z,94475.00
2023-05-01T14:14:30.417Z,94479.00
2023-05-01T14:15:30.446Z,94485.00
2023-05-01T14:16:30.516Z,94487.00
2023-05-01T14:17:30.525Z,94485.00
2023-05-01T14:18:30.445Z,94487.00
2023-05-01T14:19:30.483Z,94489.00
2023-05-01T14:20:30.459Z,94493.00
2023-05-01T14:21:30.486Z,94495.00
2023-05-01T14:22:30.502Z,94495.00
2023-05-01T14:23:30.491Z,94497.00
2023-05-01T14:24:30.499Z,94505.00
2023-05-01T14:25:30.515Z,94507.00
2023-05-01T14:26:30.549Z,94511.00
2023-05-01T14:27:30.552Z,94515.00
2023-05-01T14:28:30.546Z,94518.00
2023-05-01T14:29:30.577Z,94524.00
2023-05-01T14:30:30.585Z,94530.00
2023-05-01T14:31:30.605Z,94542.00
2023-05-01T14:32:30.663Z,94558.00
2023-05-01T14:33:30.611Z,94564.00
2023-05-01T14:34:30.573Z,94568.00
2023-05-01T14:35:30.672Z,94564.00
2023-05-01T14:36:30.632Z,94560.00
2023-05-01T14:37:30.575Z,94560.00
2023-05-01T14:38:30.593Z,94556.00
2023-05-01T14:39:30.582Z,94560.00
2023-05-01T14:40:30.659Z,94556.00
2023-05-01T14:41:30.621Z,94562.00
2023-05-01T14:42:30.639Z,94556.00
2023-05-01T14:43:30.626Z,94558.00
2023-05-01T14:44:30.644Z,94562.00
2023-05-01T14:45:30.660Z,94556.00
2023-05-01T14:46:30.837Z,94568.00
2023-05-01T14:47:30.693Z,94577.00
2023-05-01T14:48:30.685Z,94583.00
2023-05-01T14:49:30.709Z,94589.00
2023-05-01T14:50:30.737Z,94589.00
2023-05-01T14:51:30.720Z,94589.00
2023-05-01T14:52:30.727Z,94587.00
2023-05-01T14:53:30.772Z,94587.00
2023-05-01T14:54:30.771Z,94583.00
2023-05-01T14:55:32.575Z,94581.00
2023-05-01T14:56:30.780Z,94579.00
2023-05-01T14:57:30.815Z,94581.00
2023-05-01T14:58:30.791Z,94577.00
2023-05-01T14:59:30.857Z,94587.00
2023-05-01T15:00:30.854Z,94589.00
2023-05-01T15:01:30.849Z,94591.00
2023-05-01T15:02:30.936Z,94595.00
2023-05-01T15:03:31.065Z,94601.00
2023-05-01T15:04:31.012Z,94599.00
2023-05-01T15:05:30.888Z,94603.00
2023-05-01T15:06:31.004Z,94609.00
2023-05-01T15:07:30.937Z,94611.00
2023-05-01T15:08:30.944Z,94613.00
2023-05-01T15:09:31.059Z,94617.00
2023-05-01T15:10:30.948Z,94620.00
2023-05-01T15:11:30.951Z,94617.00
2023-05-01T15:12:30.987Z,94618.00
2023-05-01T15:13:31.021Z,94620.00
2023-05-01T15:14:31.034Z,94640.00
2023-05-01T15:15:31.015Z,94640.00
2023-05-01T15:16:31.143Z,94644.00
2023-05-01T15:17:32.464Z,94642.00
2023-05-01T15:18:31.060Z,94640.00
2023-05-01T15:19:31.068Z,94648.00
2023-05-01T15:20:31.097Z,94648.00
2023-05-01T15:21:31.137Z,94648.00
2023-05-01T15:22:31.116Z,94648.00
2023-05-01T15:23:31.140Z,94650.00
2023-05-01T15:24:31.124Z,94654.00
2023-05-01T15:25:31.135Z,94654.00
2023-05-01T15:26:31.151Z,94656.00
2023-05-01T15:27:31.151Z,94658.00
2023-05-01T15:28:31.216Z,94667.00
2023-05-01T15:29:31.199Z,94665.00
2023-05-01T15:30:31.193Z,94667.00
2023-05-01T15:31:31.236Z,94665.00
2023-05-01T15:32:31.306Z,94671.00
2023-05-01T15:33:31.278Z,94675.00
2023-05-01T15:34:31.278Z,94671.00
2023-05-01T15:35:31.325Z,94675.00
2023-05-01T15:36:31.323Z,94679.00
2023-05-01T15:37:31.312Z,94677.00
2023-05-01T15:38:31.350Z,94677.00
2023-05-01T15:39:31.329Z,94681.00
2023-05-01T15:40:31.385Z,94685.00
2023-05-01T15:41:31.391Z,94689.00
2023-05-01T15:42:31.409Z,94693.00
2023-05-01T15:43:31.425Z,94699.00
2023-05-01T15:44:31.444Z,94699.00
2023-05-01T15:45:31.583Z,94703.00
2023-05-01T15:46:31.618Z,94701.00
2023-05-01T15:47:31.567Z,94703.00
2023-05-01T15:48:31.528Z,94713.00
2023-05-01T15:49:31.549Z,94709.00
2023-05-01T15:50:31.581Z,94718.00
2023-05-01T15:51:31.587Z,94724.00
2023-05-01T15:52:31.639Z,94724.00
2023-05-01T15:53:31.610Z,94730.00
2023-05-01T15:54:31.653Z,94732.00
2023-05-01T15:55:31.697Z,94736.00
2023-05-01T15:56:31.683Z,94738.00
2023-05-01T15:57:31.710Z,94734.00
2023-05-01T15:58:31.720Z,94744.00
2023-05-01T15:59:31.745Z,94740.00
2023-05-01T16:00:31.764Z,94740.00
2023-05-01T16:01:31.809Z,94748.00
2023-05-01T16:02:31.866Z,94752.00
2023-05-01T16:03:31.978Z,94752.00
2023-05-01T16:04:31.845Z,94754.00
2023-05-01T16:05:31.863Z,94752.00
2023-05-01T16:06:31.933Z,94760.00
2023-05-01T16:07:31.950Z,94760.00
2023-05-01T16:08:31.947Z,94760.00
2023-05-01T16:09:31.957Z,94762.00
2023-05-01T16:10:32.023Z,94760.00
2023-05-01T16:11:32.050Z,94764.00
2023-05-01T16:12:32.066Z,94764.00
2023-05-01T16:13:32.170Z,94765.00
2023-05-01T16:14:32.103Z,94769.00
2023-05-01T16:15:32.242Z,94765.00
2023-05-01T16:16:32.225Z,94771.00
2023-05-01T16:17:32.251Z,94773.00
2023-05-01T16:18:32.249Z,94773.00
2023-05-01T16:19:32.262Z,94777.00
2023-05-01T16:20:32.294Z,94779.00
2023-05-01T16:21:32.337Z,94779.00
2023-05-01T16:22:32.376Z,94783.00
2023-05-01T16:23:32.370Z,94783.00
2023-05-01T16:24:32.436Z,94789.00
2023-05-01T16:25:32.478Z,94789.00
2023-05-01T16:26:32.479Z,94791.00
2023-05-01T16:27:32.518Z,94795.00
2023-05-01T16:28:32.555Z,94795.00
2023-05-01T16:29:32.597Z,94797.00
2023-05-01T16:30:32.592Z,94797.00
2023-05-01T16:31:32.661Z,94797.00
2023-05-01T16:32:32.701Z,94799.00
2023-05-01T16:33:32.724Z,94801.00
2023-05-01T16:34:32.729Z,94803.00
2023-05-01T16:35:32.817Z,94805.00
2023-05-01T16:36:32.794Z,94803.00
2023-05-01T16:37:32.851Z,94801.00
2023-05-01T16:38:32.883Z,94801.00
2023-05-01T16:39:32.922Z,94801.00
2023-05-01T16:40:32.958Z,94805.00
2023-05-01T16:41:32.958Z,94807.00
2023-05-01T16:42:33.015Z,94809.00
2023-05-01T16:43:33.075Z,94811.00
2023-05-01T16:44:33.082Z,94809.00
2023-05-01T16:45:33.181Z,94812.00
2023-05-01T16:46:33.163Z,94812.00